Time,TemperatureF,DewpointF,PressureIn,WindDirection,WindDirectionDegrees,WindSpeedMPH,WindSpeedGustMPH,Humidity,HourlyPrecipIn,Conditions,Clouds,dailyrainin,SoftwareType,DateUTC
2013-03-12 00:01:00,20.5,14.0,29.21,WNW,292,5.4,6.0,76,0.00,,,0.00,WUHU21623XXSP,2013-03-12 05:01:00,
2013-03-12 00:06:00,20.5,14.0,29.21,WNW,292,5.4,6.0,76,0.00,,,0.00,WUHU21623XXSP,2013-03-12 05:06:00,
2013-03-12 00:11:00,20.1,13.7,29.21,WNW,292,5.4,5.4,76,0.00,,,0.00,WUHU21623XXSP,2013-03-12 05:11:00,
2013-03-12 00:16:00,20.1,14.0,29.21,WNW,292,5.4,5.4,77,0.00,,,0.00,WUHU21623XXSP,2013-03-12 05:16:00,
2013-03-12 00:21:00,20.1,14.0,29.21,WNW,292,5.4,5.4,77,0.00,,,0.00,WUHU21623XXSP,2013-03-12 05:21:00,
2013-03-12 00:26:00,19.6,13.4,29.22,WNW,292,4.7,5.4,77,0.00,,,0.00,WUHU21623XXSP,2013-03-12 05:26:00,
2013-03-12 00:31:00,19.6,13.4,29.21,WNW,292,0.0,4.7,77,0.00,,,0.00,WUHU21623XXSP,2013-03-12 05:31:00,
2013-03-12 00:36:00,19.6,13.4,29.22,WNW,292,0.0,0.0,77,0.00,,,0.00,WUHU21623XXSP,2013-03-12 05:36:00,
2013-03-12 00:41:00,19.6,13.4,29.21,WNW,292,0.0,0.0,77,0.00,,,0.00,WUHU21623XXSP,2013-03-12 05:41:00,
2013-03-12 00:46:00,19.6,13.4,29.21,WNW,292,0.0,0.0,77,0.00,,,0.00,WUHU21623XXSP,2013-03-12 05:46:00,
2013-03-12 00:51:00,19.6,13.4,29.20,WNW,292,5.4,5.4,77,0.00,,,0.00,WUHU21623XXSP,2013-03-12 05:51:00,
2013-03-12 00:56:00,19.6,13.4,29.21,WNW,292,5.4,5.4,77,0.00,,,0.00,WUHU21623XXSP,2013-03-12 05:56:00,
2013-03-12 01:01:00,19.6,13.4,29.21,WNW,292,5.4,5.4,77,0.00,,,0.00,WUHU21623XXSP,2013-03-12 06:01:00,
2013-03-12 01:06:00,19.6,13.4,29.21,WNW,292,5.4,5.4,77,0.00,,,0.00,WUHU21623XXSP,2013-03-12 06:06:00,
2013-03-12 01:11:00,19.9,13.8,29.21,WNW,292,1.6,5.4,77,0.00,,,0.00,WUHU21623XXSP,2013-03-12 06:11:00,
2013-03-12 01:17:00,19.9,13.8,29.21,WNW,292,0.0,1.6,77,0.00,,,0.00,WUHU21623XXSP,2013-03-12 06:17:00,
2013-03-12 01:22:00,20.3,13.9,29.21,WNW,292,0.0,1.6,76,0.00,,,0.00,WUHU21623XXSP,2013-03-12 06:22:00,
2013-03-12 01:27:00,20.5,14.0,29.20,WNW,292,0.0,0.0,76,0.00,,,0.00,WUHU21623XXSP,2013-03-12 06:27:00,
2013-03-12 01:32:00,20.5,14.0,29.20,WNW,292,4.0,4.0,75,0.00,,,0.00,WUHU21623XXSP,2013-03-12 06:32:00,
2013-03-12 01:37:00,20.8,14.1,29.21,WNW,292,5.4,5.4,75,0.00,,,0.00,WUHU21623XXSP,2013-03-12 06:37:00,
2013-03-12 01:42:00,20.8,14.1,29.20,WNW,292,5.4,5.4,75,0.00,,,0.00,WUHU21623XXSP,2013-03-12 06:42:00,
2013-03-12 01:47:00,20.8,14.1,29.20,WNW,292,5.4,5.4,75,0.00,,,0.00,WUHU21623XXSP,2013-03-12 06:47:00,
2013-03-12 01:52:00,20.8,14.1,29.21,WNW,292,5.4,5.4,75,0.00,,,0.00,WUHU21623XXSP,2013-03-12 06:52:00,
2013-03-12 01:57:00,20.8,14.1,29.21,WNW,292,5.4,5.4,75,0.00,,,0.00,WUHU21623XXSP,2013-03-12 06:57:00,
2013-03-12 02:02:00,20.8,14.1,29.21,WNW,292,5.4,5.4,75,0.00,,,0.00,WUHU21623XXSP,2013-03-12 07:02:00,
2013-03-12 06:10:00,24.4,18.9,29.21,WNW,292,1.8,1.8,79,0.00,,,0.00,WUHU21623XXSP,2013-03-12 11:10:00,
2013-03-12 06:15:00,24.4,18.9,29.21,WNW,292,1.8,1.8,79,0.00,,,0.00,WUHU21623XXSP,2013-03-12 11:15:00,
2013-03-12 06:20:00,24.4,18.9,29.21,WNW,292,1.8,1.8,79,0.00,,,0.00,WUHU21623XXSP,2013-03-12 11:20:00,
2013-03-12 06:25:00,24.4,18.9,29.21,WNW,292,1.8,1.8,79,0.00,,,0.00,WUHU21623XXSP,2013-03-12 11:25:00,
2013-03-12 06:30:00,24.4,18.9,29.21,WNW,292,1.8,1.8,79,0.00,,,0.00,WUHU21623XXSP,2013-03-12 11:30:00,
2013-03-12 06:35:00,24.4,18.9,29.22,WNW,292,1.8,1.8,79,0.00,,,0.00,WUHU21623XXSP,2013-03-12 11:35:00,
2013-03-12 06:40:00,24.4,18.9,29.22,WNW,292,1.8,1.8,79,0.00,,,0.00,WUHU21623XXSP,2013-03-12 11:40:00,
2013-03-12 06:45:00,24.4,18.9,29.22,WNW,292,1.8,1.8,79,0.00,,,0.00,WUHU21623XXSP,2013-03-12 11:45:00,
2013-03-12 07:08:00,24.4,19.2,29.21,NW,315,7.4,7.4,80,0.00,,,0.00,WUHU21623XXSP,2013-03-12 12:08:00,
2013-03-12 07:13:00,24.4,19.2,29.22,NW,315,7.4,7.4,80,0.00,,,0.00,WUHU21623XXSP,2013-03-12 12:13:00,
2013-03-12 07:18:00,24.1,18.9,29.22,NW,315,7.4,7.4,80,0.00,,,0.00,WUHU21623XXSP,2013-03-12 12:18:00,
2013-03-12 07:23:00,24.1,18.9,29.22,NW,315,7.4,7.4,80,0.00,,,0.00,WUHU21623XXSP,2013-03-12 12:23:00,
2013-03-12 07:28:00,24.1,18.9,29.22,NW,315,7.4,7.4,80,0.00,,,0.00,WUHU21623XXSP,2013-03-12 12:28:00,
2013-03-12 07:33:00,24.1,18.9,29.22,NW,315,7.4,7.4,80,0.00,,,0.00,WUHU21623XXSP,2013-03-12 12:33:00,
2013-03-12 07:38:00,24.1,18.9,29.22,NW,315,7.4,7.4,80,0.00,,,0.00,WUHU21623XXSP,2013-03-12 12:38:00,
2013-03-12 08:06:00,22.8,17.3,29.23,NNW,337,0.0,0.0,79,0.00,,,0.00,WUHU21623XXSP,2013-03-12 13:06:00,
2013-03-12 08:11:00,23.2,17.6,29.23,NNW,337,0.0,0.0,79,0.00,,,0.00,WUHU21623XXSP,2013-03-12 13:11:00,
2013-03-12 08:16:00,23.2,17.6,29.24,NNW,337,0.0,0.0,79,0.00,,,0.00,WUHU21623XXSP,2013-03-12 13:16:00,
2013-03-12 08:21:00,23.2,17.6,29.24,NNW,337,0.0,0.0,79,0.00,,,0.00,WUHU21623XXSP,2013-03-12 13:21:00,
2013-03-12 08:26:00,23.2,16.4,29.24,NNW,337,0.0,0.0,75,0.00,,,0.00,WUHU21623XXSP,2013-03-12 13:26:00,
2013-03-12 08:31:00,25.5,18.6,29.24,NNW,337,0.0,0.0,75,0.00,,,0.00,WUHU21623XXSP,2013-03-12 13:31:00,
2013-03-12 08:36:00,25.3,18.5,29.24,WNW,292,0.0,0.0,75,0.00,,,0.00,WUHU21623XXSP,2013-03-12 13:36:00,
2013-03-12 08:41:00,25.3,18.5,29.24,WNW,292,0.0,0.0,75,0.00,,,0.00,WUHU21623XXSP,2013-03-12 13:41:00,
2013-03-12 08:46:00,25.3,18.5,29.25,WNW,292,0.0,0.0,75,0.00,,,0.00,WUHU21623XXSP,2013-03-12 13:46:00,
2013-03-12 08:51:00,25.3,18.5,29.25,WNW,292,0.0,0.0,75,0.00,,,0.00,WUHU21623XXSP,2013-03-12 13:51:00,
2013-03-12 08:56:00,25.3,18.5,29.25,WNW,292,0.0,0.0,75,0.00,,,0.00,WUHU21623XXSP,2013-03-12 13:56:00,
2013-03-12 09:02:00,25.2,18.3,29.25,WNW,292,0.0,0.0,75,0.00,,,0.00,WUHU21623XXSP,2013-03-12 14:02:00,
2013-03-12 09:07:00,25.3,18.5,29.25,WNW,292,0.0,0.0,75,0.00,,,0.00,WUHU21623XXSP,2013-03-12 14:07:00,
2013-03-12 09:12:00,25.3,17.2,29.26,WNW,292,0.0,0.0,71,0.00,,,0.00,WUHU21623XXSP,2013-03-12 14:12:00,
2013-03-12 09:17:00,25.7,17.4,29.25,WNW,292,0.0,0.0,71,0.00,,,0.00,WUHU21623XXSP,2013-03-12 14:17:00,
2013-03-12 09:22:00,25.7,17.2,29.26,WNW,292,0.0,0.0,70,0.00,,,0.00,WUHU21623XXSP,2013-03-12 14:22:00,
2013-03-12 09:27:00,26.2,17.8,29.26,WNW,292,0.0,0.0,70,0.00,,,0.00,WUHU21623XXSP,2013-03-12 14:27:00,
2013-03-12 09:32:00,26.2,17.8,29.26,WNW,292,0.0,0.0,70,0.00,,,0.00,WUHU21623XXSP,2013-03-12 14:32:00,
2013-03-12 09:37:00,26.2,17.8,29.26,WNW,292,0.0,0.0,70,0.00,,,0.00,WUHU21623XXSP,2013-03-12 14:37:00,
2013-03-12 10:18:00,37.8,21.7,29.27,NNW,337,0.0,0.0,52,0.00,,,0.00,WUHU21623XXSP,2013-03-12 15:18:00,
2013-03-12 10:24:00,38.1,21.6,29.28,NNW,337,6.3,6.3,51,0.00,,,0.00,WUHU21623XXSP,2013-03-12 15:24:00,
2013-03-12 10:29:00,38.3,21.3,29.28,NNW,337,6.7,6.7,50,0.00,,,0.00,WUHU21623XXSP,2013-03-12 15:29:00,
2013-03-12 10:34:00,38.3,20.2,29.28,NNW,337,4.9,6.7,48,0.00,,,0.00,WUHU21623XXSP,2013-03-12 15:34:00,
2013-03-12 10:39:00,38.1,20.6,29.28,NW,315,4.3,4.9,49,0.00,,,0.00,WUHU21623XXSP,2013-03-12 15:39:00,
2013-03-12 10:44:00,38.8,21.8,29.29,NNW,337,0.0,4.3,50,0.00,,,0.00,WUHU21623XXSP,2013-03-12 15:44:00,
2013-03-12 10:49:00,40.1,22.4,29.29,NNW,337,0.0,4.3,49,0.00,,,0.00,WUHU21623XXSP,2013-03-12 15:49:00,
2013-03-12 10:54:00,41.4,22.0,29.29,NNW,337,0.0,3.1,46,0.00,,,0.00,WUHU21623XXSP,2013-03-12 15:54:00,
2013-03-12 10:59:00,41.9,22.5,29.29,NNW,337,0.0,3.6,46,0.00,,,0.00,WUHU21623XXSP,2013-03-12 15:59:00,
2013-03-12 11:04:00,42.6,22.1,29.29,WNW,292,0.9,3.6,44,0.00,,,0.00,WUHU21623XXSP,2013-03-12 16:04:00,
2013-03-12 11:10:00,42.8,22.3,29.29,NW,315,0.0,3.4,44,0.00,,,0.00,WUHU21623XXSP,2013-03-12 16:10:00,
2013-03-12 11:15:00,43.0,21.9,29.29,NW,315,0.0,3.4,43,0.00,,,0.00,WUHU21623XXSP,2013-03-12 16:15:00,
2013-03-12 11:20:00,43.7,22.0,29.29,NNW,337,0.0,4.3,42,0.00,,,0.00,WUHU21623XXSP,2013-03-12 16:20:00,
2013-03-12 11:25:00,44.4,22.1,29.29,NNW,337,3.8,4.3,41,0.00,,,0.00,WUHU21623XXSP,2013-03-12 16:25:00,
2013-03-12 11:30:00,44.4,22.1,29.29,NNW,337,0.0,3.8,41,0.00,,,0.00,WUHU21623XXSP,2013-03-12 16:30:00,
2013-03-12 11:35:00,44.4,21.6,29.29,NW,315,3.1,3.1,40,0.00,,,0.00,WUHU21623XXSP,2013-03-12 16:35:00,
2013-03-12 11:40:00,43.7,20.9,29.30,WNW,292,6.0,6.0,40,0.00,,,0.00,WUHU21623XXSP,2013-03-12 16:40:00,
2013-03-12 11:45:00,43.9,21.6,29.30,WNW,292,0.0,6.0,41,0.00,,,0.00,WUHU21623XXSP,2013-03-12 16:45:00,
2013-03-12 11:50:00,44.8,22.4,29.30,NW,315,0.0,7.6,41,0.00,,,0.00,WUHU21623XXSP,2013-03-12 16:50:00,
2013-03-12 11:55:00,44.8,21.9,29.30,WNW,292,4.9,7.6,40,0.00,,,0.00,WUHU21623XXSP,2013-03-12 16:55:00,
2013-03-12 12:00:00,45.0,22.1,29.30,NNW,337,0.0,7.4,40,0.00,,,0.00,WUHU21623XXSP,2013-03-12 17:00:00,
2013-03-12 12:05:00,45.0,21.4,29.30,NNW,337,0.0,5.1,39,0.00,,,0.00,WUHU21623XXSP,2013-03-12 17:05:00,
2013-03-12 12:10:00,43.9,21.1,29.30,NW,315,0.0,0.0,40,0.00,,,0.00,WUHU21623XXSP,2013-03-12 17:10:00,
2013-03-12 12:15:00,43.7,20.9,29.30,WNW,292,3.6,3.6,40,0.00,,,0.00,WUHU21623XXSP,2013-03-12 17:15:00,
2013-03-12 12:20:00,43.9,21.1,29.30,NW,315,8.1,8.1,40,0.00,,,0.00,WUHU21623XXSP,2013-03-12 17:20:00,
2013-03-12 12:25:00,44.1,21.3,29.31,NW,315,3.1,8.1,40,0.00,,,0.00,WUHU21623XXSP,2013-03-12 17:25:00,
2013-03-12 12:30:00,42.6,20.0,29.31,NNW,337,9.2,9.2,40,0.00,,,0.00,WUHU21623XXSP,2013-03-12 17:30:00,
2013-03-12 12:35:00,42.4,20.9,29.31,NW,315,0.0,9.2,42,0.00,,,0.00,WUHU21623XXSP,2013-03-12 17:35:00,
2013-03-12 12:40:00,43.2,21.0,29.31,NW,315,2.0,6.7,41,0.00,,,0.00,WUHU21623XXSP,2013-03-12 17:40:00,
2013-03-12 12:45:00,42.6,20.5,29.31,West,270,1.3,4.9,41,0.02,,,0.00,WUHU21623XXSP,2013-03-12 17:45:00,
2013-03-12 12:50:00,43.5,21.8,29.31,NW,315,6.0,6.0,42,0.02,,,0.02,WUHU21623XXSP,2013-03-12 17:50:00,
2013-03-12 12:55:00,44.1,21.8,29.32,NNW,337,3.8,6.0,41,0.02,,,0.02,WUHU21623XXSP,2013-03-12 17:55:00,
2013-03-12 13:00:00,43.7,21.5,29.32,NW,315,0.0,3.8,41,0.02,,,0.02,WUHU21623XXSP,2013-03-12 18:00:00,
2013-03-12 13:06:00,41.0,20.1,29.32,NW,315,0.0,6.9,43,0.02,,,0.02,WUHU21623XXSP,2013-03-12 18:06:00,
2013-03-12 13:11:00,39.0,19.3,29.32,WNW,292,9.4,9.4,45,0.02,,,0.02,WUHU21623XXSP,2013-03-12 18:11:00,
2013-03-12 13:16:00,37.6,19.6,29.32,NNW,337,5.8,9.4,48,0.02,,,0.02,WUHU21623XXSP,2013-03-12 18:16:00,
2013-03-12 13:21:00,37.6,20.1,29.32,WSW,247,0.0,6.5,49,0.02,,,0.02,WUHU21623XXSP,2013-03-12 18:21:00,
2013-03-12 13:26:00,37.9,19.9,29.32,WNW,292,11.9,11.9,48,0.02,,,0.02,WUHU21623XXSP,2013-03-12 18:26:00,
2013-03-12 13:31:00,37.8,20.3,29.33,NW,315,6.7,11.9,49,0.02,,,0.02,WUHU21623XXSP,2013-03-12 18:31:00,
2013-03-12 13:36:00,37.4,19.4,29.33,WSW,247,8.3,8.3,49,0.02,,,0.02,WUHU21623XXSP,2013-03-12 18:36:00,
2013-03-12 13:41:00,37.9,20.4,29.33,NNW,337,6.5,8.3,49,0.02,,,0.02,WUHU21623XXSP,2013-03-12 18:41:00,
2013-03-12 13:46:00,38.3,20.8,29.32,NNW,337,10.5,10.5,48,0.00,,,0.02,WUHU21623XXSP,2013-03-12 18:46:00,
2013-03-12 13:51:00,36.7,19.3,29.33,WNW,292,13.9,13.9,49,0.00,,,0.02,WUHU21623XXSP,2013-03-12 18:51:00,
2013-03-12 13:56:00,35.8,19.0,29.33,WNW,292,9.6,13.9,50,0.00,,,0.02,WUHU21623XXSP,2013-03-12 18:56:00,
2013-03-12 14:01:00,34.9,18.3,29.32,NW,315,2.2,13.9,51,0.00,,,0.02,WUHU21623XXSP,2013-03-12 19:01:00,
2013-03-12 14:06:00,35.2,19.4,29.33,WNW,292,6.3,7.8,52,0.00,,,0.02,WUHU21623XXSP,2013-03-12 19:06:00,
2013-03-12 14:11:00,36.0,19.5,29.32,NNW,337,9.4,9.4,52,0.00,,,0.02,WUHU21623XXSP,2013-03-12 19:11:00,
2013-03-12 14:16:00,36.9,20.4,29.33,NW,315,5.6,11.2,51,0.00,,,0.02,WUHU21623XXSP,2013-03-12 19:16:00,
2013-03-12 14:21:00,35.8,19.0,29.33,WNW,292,6.7,11.2,50,0.00,,,0.02,WUHU21623XXSP,2013-03-12 19:21:00,
2013-03-12 14:26:00,34.3,18.0,29.33,NNW,337,0.0,6.7,51,0.00,,,0.02,WUHU21623XXSP,2013-03-12 19:26:00,
2013-03-12 14:32:00,33.4,18.0,29.33,NNW,337,0.0,9.4,53,0.00,,,0.02,WUHU21623XXSP,2013-03-12 19:32:00,
2013-03-12 14:37:00,32.9,18.1,29.33,NW,315,4.5,9.4,54,0.00,,,0.02,WUHU21623XXSP,2013-03-12 19:37:00,
2013-03-12 14:42:00,33.1,18.7,29.33,WNW,292,6.3,7.4,55,0.00,,,0.02,WUHU21623XXSP,2013-03-12 19:42:00,
2013-03-12 14:47:00,33.4,18.9,29.33,NW,315,5.6,8.3,55,0.00,,,0.02,WUHU21623XXSP,2013-03-12 19:47:00,
2013-03-12 14:52:00,32.9,18.4,29.33,NW,315,0.0,8.5,55,0.00,,,0.02,WUHU21623XXSP,2013-03-12 19:52:00,
2013-03-12 14:57:00,33.4,19.3,29.33,WNW,292,4.7,8.5,56,0.00,,,0.02,WUHU21623XXSP,2013-03-12 19:57:00,
2013-03-12 15:02:00,34.2,19.6,29.33,West,270,5.1,7.8,55,0.00,,,0.02,WUHU21623XXSP,2013-03-12 20:02:00,
2013-03-12 15:07:00,34.3,19.3,29.33,NW,315,2.7,5.1,54,0.00,,,0.02,WUHU21623XXSP,2013-03-12 20:07:00,
2013-03-12 15:12:00,35.2,20.2,29.33,WNW,292,2.2,5.1,54,0.00,,,0.02,WUHU21623XXSP,2013-03-12 20:12:00,
2013-03-12 15:17:00,34.3,18.9,29.33,NW,315,0.0,11.2,53,0.00,,,0.02,WUHU21623XXSP,2013-03-12 20:17:00,
2013-03-12 15:22:00,33.3,19.2,29.33,NW,315,5.1,11.2,56,0.00,,,0.02,WUHU21623XXSP,2013-03-12 20:22:00,
2013-03-12 15:27:00,32.9,18.8,29.33,West,270,0.0,5.1,56,0.00,,,0.02,WUHU21623XXSP,2013-03-12 20:27:00,
2013-03-12 15:32:00,32.7,18.7,29.33,NW,315,7.6,7.6,56,0.00,,,0.02,WUHU21623XXSP,2013-03-12 20:32:00,
2013-03-12 15:37:00,31.8,18.3,29.33,WNW,292,6.7,7.6,57,0.00,,,0.02,WUHU21623XXSP,2013-03-12 20:37:00,
2013-03-12 15:42:00,31.6,18.1,29.33,NW,315,7.4,7.4,57,0.00,,,0.02,WUHU21623XXSP,2013-03-12 20:42:00,
2013-03-12 15:47:00,31.6,18.5,29.34,NNW,337,6.9,9.4,58,0.00,,,0.02,WUHU21623XXSP,2013-03-12 20:47:00,
2013-03-12 15:52:00,30.7,18.1,29.34,WNW,292,2.2,12.3,59,0.00,,,0.02,WUHU21623XXSP,2013-03-12 20:52:00,
2013-03-12 15:57:00,30.6,17.9,29.34,NNW,337,6.9,12.3,59,0.00,,,0.02,WUHU21623XXSP,2013-03-12 20:57:00,
2013-03-12 16:02:00,30.7,18.1,29.35,West,270,7.6,7.6,59,0.00,,,0.02,WUHU21623XXSP,2013-03-12 21:02:00,
2013-03-12 16:08:00,31.6,19.0,29.35,WSW,247,0.0,9.4,59,0.00,,,0.02,WUHU21623XXSP,2013-03-12 21:08:00,
2013-03-12 16:13:00,32.5,19.4,29.35,WSW,247,3.1,9.4,58,0.00,,,0.02,WUHU21623XXSP,2013-03-12 21:13:00,
2013-03-12 16:18:00,33.3,19.2,29.35,WSW,247,6.9,6.9,56,0.00,,,0.02,WUHU21623XXSP,2013-03-12 21:18:00,
2013-03-12 16:23:00,33.1,18.6,29.35,WSW,247,3.6,6.9,55,0.00,,,0.02,WUHU21623XXSP,2013-03-12 21:23:00,
2013-03-12 16:28:00,32.7,18.2,29.35,WSW,247,11.2,11.2,56,0.00,,,0.02,WUHU21623XXSP,2013-03-12 21:28:00,
2013-03-12 16:33:00,32.9,18.4,29.35,NW,315,3.8,11.2,55,0.00,,,0.02,WUHU21623XXSP,2013-03-12 21:33:00,
2013-03-12 16:38:00,32.7,18.7,29.35,NNW,337,6.0,11.9,56,0.00,,,0.02,WUHU21623XXSP,2013-03-12 21:38:00,
2013-03-12 16:43:00,32.7,18.7,29.35,WSW,247,4.3,11.9,56,0.00,,,0.02,WUHU21623XXSP,2013-03-12 21:43:00,
2013-03-12 16:48:00,33.1,19.0,29.35,WSW,247,4.3,6.9,56,0.00,,,0.02,WUHU21623XXSP,2013-03-12 21:48:00,
2013-03-12 16:53:00,31.1,18.0,29.35,WNW,292,2.7,13.6,58,0.00,,,0.02,WUHU21623XXSP,2013-03-12 21:53:00,
2013-03-12 16:58:00,30.4,18.1,29.35,WNW,292,2.5,13.6,60,0.00,,,0.02,WUHU21623XXSP,2013-03-12 21:58:00,
2013-03-12 17:03:00,30.6,18.3,29.36,NW,315,6.0,6.0,60,0.00,,,0.02,WUHU21623XXSP,2013-03-12 22:03:00,
2013-03-12 17:08:00,30.6,18.9,29.35,NNW,337,3.8,7.2,62,0.00,,,0.02,WUHU21623XXSP,2013-03-12 22:08:00,
2013-03-12 17:13:00,30.4,19.2,29.36,NNW,337,8.5,8.5,63,0.00,,,0.02,WUHU21623XXSP,2013-03-12 22:13:00,
2013-03-12 17:18:00,30.7,19.2,29.36,WSW,247,6.3,8.5,62,0.00,,,0.02,WUHU21623XXSP,2013-03-12 22:18:00,
2013-03-12 17:23:00,31.3,19.4,29.36,WNW,292,10.5,10.5,61,0.00,,,0.02,WUHU21623XXSP,2013-03-12 22:23:00,
2013-03-12 17:28:00,30.7,19.2,29.37,WNW,292,10.5,10.5,62,0.00,,,0.02,WUHU21623XXSP,2013-03-12 22:28:00,
2013-03-12 17:33:00,30.2,19.0,29.37,NW,315,5.6,10.5,63,0.00,,,0.02,WUHU21623XXSP,2013-03-12 22:33:00,
2013-03-12 17:38:00,30.0,19.0,29.37,WNW,292,2.9,7.2,63,0.00,,,0.02,WUHU21623XXSP,2013-03-12 22:38:00,
2013-03-12 17:43:00,29.3,18.4,29.37,WNW,292,8.1,8.1,62,0.00,,,0.02,WUHU21623XXSP,2013-03-12 22:43:00,
2013-03-12 17:48:00,28.6,17.9,29.38,NW,315,10.3,10.3,64,0.00,,,0.02,WUHU21623XXSP,2013-03-12 22:48:00,
2013-03-12 17:53:00,28.2,18.0,29.38,NNW,337,13.0,13.0,65,0.00,,,0.02,WUHU21623XXSP,2013-03-12 22:53:00,
2013-03-12 17:58:00,28.2,17.6,29.38,NNW,337,0.0,13.0,64,0.00,,,0.02,WUHU21623XXSP,2013-03-12 22:58:00,
2013-03-12 18:04:00,28.2,17.6,29.38,NW,315,1.8,8.5,63,0.00,,,0.02,WUHU21623XXSP,2013-03-12 23:04:00,
2013-03-12 18:09:00,28.0,17.1,29.38,NNW,337,7.6,8.7,63,0.00,,,0.02,WUHU21623XXSP,2013-03-12 23:09:00,
2013-03-12 18:14:00,27.7,17.1,29.38,West,270,0.0,8.7,65,0.00,,,0.02,WUHU21623XXSP,2013-03-12 23:14:00,
2013-03-12 18:19:00,27.5,17.4,29.38,WNW,292,5.6,5.6,66,0.00,,,0.02,WUHU21623XXSP,2013-03-12 23:19:00,
2013-03-12 18:24:00,27.1,17.4,29.38,West,270,5.1,5.6,66,0.00,,,0.02,WUHU21623XXSP,2013-03-12 23:24:00,
2013-03-12 18:29:00,26.6,16.7,29.39,WNW,292,6.7,6.7,66,0.00,,,0.02,WUHU21623XXSP,2013-03-12 23:29:00,
2013-03-12 18:34:00,26.4,16.5,29.38,WNW,292,3.6,6.9,66,0.00,,,0.02,WUHU21623XXSP,2013-03-12 23:34:00,
2013-03-12 18:39:00,26.6,16.7,29.39,NNW,337,6.5,6.9,66,0.00,,,0.02,WUHU21623XXSP,2013-03-12 23:39:00,
2013-03-12 18:44:00,26.6,16.7,29.39,NNW,337,3.8,6.5,66,0.00,,,0.02,WUHU21623XXSP,2013-03-12 23:44:00,
2013-03-12 18:49:00,26.4,16.5,29.40,NW,315,8.1,8.1,66,0.00,,,0.02,WUHU21623XXSP,2013-03-12 23:49:00,
2013-03-12 18:54:00,26.2,16.9,29.40,WNW,292,3.8,8.1,67,0.00,,,0.02,WUHU21623XXSP,2013-03-12 23:54:00,
2013-03-12 18:59:00,25.7,16.5,29.40,North,0,0.0,7.2,68,0.00,,,0.02,WUHU21623XXSP,2013-03-12 23:59:00,
2013-03-12 19:04:00,25.5,16.4,29.40,NW,315,6.9,6.9,68,0.00,,,0.02,WUHU21623XXSP,2013-03-13 00:04:00,
2013-03-12 19:09:00,25.0,16.2,29.40,NW,315,6.9,6.9,68,0.00,,,0.02,WUHU21623XXSP,2013-03-13 00:09:00,
2013-03-12 19:14:00,24.6,15.8,29.40,WNW,292,9.4,9.4,69,0.00,,,0.02,WUHU21623XXSP,2013-03-13 00:14:00,
2013-03-12 19:19:00,24.4,15.7,29.40,NW,315,6.7,9.4,69,0.00,,,0.02,WUHU21623XXSP,2013-03-13 00:19:00,
2013-03-12 19:24:00,24.4,15.7,29.41,NW,315,3.8,6.7,70,0.00,,,0.02,WUHU21623XXSP,2013-03-13 00:24:00,
2013-03-12 19:29:00,24.4,16.0,29.41,WNW,292,10.1,10.1,70,0.00,,,0.02,WUHU21623XXSP,2013-03-13 00:29:00,
2013-03-12 19:34:00,24.3,15.9,29.42,WNW,292,6.5,10.1,70,0.00,,,0.02,WUHU21623XXSP,2013-03-13 00:34:00,
2013-03-12 19:39:00,24.3,16.2,29.41,NNW,337,7.4,7.6,71,0.00,,,0.02,WUHU21623XXSP,2013-03-13 00:39:00,
2013-03-12 19:44:00,24.1,16.0,29.42,NW,315,5.8,7.4,71,0.00,,,0.02,WUHU21623XXSP,2013-03-13 00:44:00,
2013-03-12 19:49:00,24.1,16.0,29.42,NW,315,5.8,7.4,71,0.00,,,0.02,WUHU21623XXSP,2013-03-13 00:49:00,
2013-03-12 19:54:00,24.1,16.0,29.43,NNW,337,0.0,5.8,71,0.00,,,0.02,WUHU21623XXSP,2013-03-13 00:54:00,
2013-03-12 19:59:00,24.1,16.0,29.42,NNW,337,0.0,0.0,71,0.00,,,0.02,WUHU21623XXSP,2013-03-13 00:59:00,
2013-03-12 20:04:00,23.9,16.0,29.43,NNW,337,0.0,0.0,71,0.00,,,0.02,WUHU21623XXSP,2013-03-13 01:04:00,
2013-03-12 20:09:00,23.7,15.4,29.43,North,0,2.9,2.9,70,0.00,,,0.02,WUHU21623XXSP,2013-03-13 01:09:00,
2013-03-12 20:14:00,23.5,15.4,29.43,WNW,292,6.9,6.9,70,0.00,,,0.02,WUHU21623XXSP,2013-03-13 01:14:00,
2013-03-12 20:19:00,23.5,15.2,29.44,WNW,292,6.9,6.9,70,0.00,,,0.02,WUHU21623XXSP,2013-03-13 01:19:00,
2013-03-12 20:24:00,23.5,15.2,29.44,NW,315,5.6,6.9,70,0.00,,,0.02,WUHU21623XXSP,2013-03-13 01:24:00,
2013-03-12 20:30:00,23.5,15.2,29.45,NW,315,5.6,6.9,70,0.00,,,0.02,WUHU21623XXSP,2013-03-13 01:30:00,
2013-03-12 20:35:00,23.5,14.9,29.45,WNW,292,7.8,7.8,70,0.00,,,0.02,WUHU21623XXSP,2013-03-13 01:35:00,
2013-03-12 20:40:00,23.2,14.9,29.44,WNW,292,7.8,7.8,70,0.00,,,0.02,WUHU21623XXSP,2013-03-13 01:40:00,
2013-03-12 20:45:00,23.2,14.9,29.45,WNW,292,7.8,7.8,70,0.00,,,0.02,WUHU21623XXSP,2013-03-13 01:45:00,
2013-03-12 20:50:00,23.2,14.9,29.45,WNW,292,7.8,7.8,70,0.00,,,0.02,WUHU21623XXSP,2013-03-13 01:50:00,
2013-03-12 20:55:00,23.0,14.7,29.46,WNW,292,0.0,7.8,70,0.00,,,0.02,WUHU21623XXSP,2013-03-13 01:55:00,
2013-03-12 21:00:00,22.8,14.5,29.46,NW,315,5.8,7.8,70,0.00,,,0.02,WUHU21623XXSP,2013-03-13 02:00:00,
2013-03-12 21:05:00,22.8,14.5,29.46,NNW,337,4.0,5.8,70,0.00,,,0.02,WUHU21623XXSP,2013-03-13 02:05:00,
2013-03-12 21:10:00,22.8,14.5,29.46,NW,315,2.7,5.8,70,0.00,,,0.02,WUHU21623XXSP,2013-03-13 02:10:00,
2013-03-12 21:15:00,22.8,14.5,29.47,NW,315,2.7,2.7,70,0.00,,,0.02,WUHU21623XXSP,2013-03-13 02:15:00,
2013-03-12 21:20:00,22.8,14.5,29.47,NW,315,0.0,2.7,69,0.00,,,0.02,WUHU21623XXSP,2013-03-13 02:20:00,
2013-03-12 21:25:00,22.8,14.2,29.47,NNW,337,5.8,5.8,69,0.00,,,0.02,WUHU21623XXSP,2013-03-13 02:25:00,
2013-03-12 21:30:00,22.8,14.2,29.47,NNW,337,5.8,5.8,69,0.00,,,0.02,WUHU21623XXSP,2013-03-13 02:30:00,
2013-03-12 21:35:00,22.8,14.2,29.48,NNW,337,5.8,5.8,69,0.00,,,0.02,WUHU21623XXSP,2013-03-13 02:35:00,
2013-03-12 21:40:00,22.8,14.2,29.48,NNW,337,5.8,5.8,69,0.00,,,0.02,WUHU21623XXSP,2013-03-13 02:40:00,
2013-03-12 21:45:00,22.8,14.2,29.48,NNW,337,5.8,5.8,69,0.00,,,0.02,WUHU21623XXSP,2013-03-13 02:45:00,
2013-03-12 23:35:00,19.6,11.6,29.52,NNW,337,3.1,3.1,71,0.00,,,0.00,WUHU21623XXSP,2013-03-13 04:35:00,
2013-03-12 23:36:00,19.6,11.6,29.52,NNW,337,3.1,3.1,71,0.00,,,0.00,WUHU21623XXSP,2013-03-13 04:36:00,
2013-03-12 23:41:00,19.6,11.6,29.52,NNW,337,3.1,3.1,71,0.00,,,0.00,WUHU21623XXSP,2013-03-13 04:41:00,
2013-03-12 23:46:00,19.6,11.6,29.53,NNW,337,3.1,3.1,71,0.00,,,0.00,WUHU21623XXSP,2013-03-13 04:46:00,
2013-03-12 23:52:00,19.6,11.6,29.53,NNW,337,4.7,4.7,71,0.00,,,0.00,WUHU21623XXSP,2013-03-13 04:52:00,
2013-03-12 23:57:00,19.4,11.6,29.53,NNW,337,4.7,4.7,71,0.00,,,0.00,WUHU21623XXSP,2013-03-13 04:57:00,